Meteo Giornale » Osservazioni meteo Polonia » Szczecin
ore: 11:30 - Osservazioni Meteo Szczecin
Lat. 53° 24' N Lon. 14° 37' E Alt. 1 metri s.l.m.
18 °C
Molto Nuvoloso
Temp. 24 Ore
14 °C
25 °C
Ovest
16.7 Km/h
Dew point 15 °C
Umidità 82 %
Visibilità 10 Km
Il sole sorge alle ore 06:11
Il sole tramonta alle ore 19:52
| Data e Ora | Cielo e Fenomeni | T °C | DP °C | Um. % | Pres. hPa | Vis. km | Vento km/h | |
|---|---|---|---|---|---|---|---|---|
| Oggi h: 11:30 | Molto Nuvoloso | 18 | 15 | 82 | 1014 | 10 | O 16.7 | |
| Oggi h: 11:00 | Molto Nuvoloso | 17 | 15 | 88 | 1014 | 10 | O/SO 14.8 | |
| Oggi h: 10:30 | Molto Nuvoloso | 17 | 15 | 88 | 1014 | 10 | O/SO 9.3 | |
| Oggi h: 10:00 | Molto Nuvoloso | 16 | 15 | 93 | 1013 | 10 | O/SO 11.1 | |
| Oggi h: 09:30 | Molto Nuvoloso | 16 | 15 | 93 | 1013 | 10 | O/SO 11.1 | |
| Oggi h: 09:00 | Molto Nuvoloso | 16 | 14 | 87 | 1013 | 10 | O/SO 11.1 | |
| Oggi h: 08:30 | Molto Nuvoloso | 15 | 14 | 93 | 1013 | 10 | O/SO 13 | |
| Oggi h: 08:00 | Molto Nuvoloso | 15 | 14 | 93 | 1012 | 10 | O/SO 14.8 | |
| Oggi h: 07:30 | Molto Nuvoloso | 15 | 14 | 93 | 1012 | 10 | SO 11.1 | |
| Oggi h: 07:00 | Molto Nuvoloso | 14 | 14 | 100 | 1012 | 10 | O/SO 9.3 | |
| Oggi h: 06:30 | Molto Nuvoloso | 14 | 13 | 93 | 1012 | 10 | O/SO 7.4 | |
| Oggi h: 06:00 | Coperto | 14 | 13 | 93 | 1012 | 10 | O/SO 11.1 | |
| Oggi h: 05:30 | Molto Nuvoloso | 15 | 14 | 93 | 1011 | 10 | O/SO 11.1 | |
| Oggi h: 05:00 | Molto Nuvoloso | 15 | 14 | 93 | 1011 | 10 | SO 11.1 | |
| Oggi h: 04:30 | Nuvoloso | 15 | 14 | 93 | 1011 | 10 | SO 9.3 | |
| Oggi h: 04:00 | Pioggia | 15 | 14 | 93 | 1011 | 10 | N 3.7 | |
| Oggi h: 03:30 | Nuvoloso | 14 | 14 | 100 | 1011 | 10 | N 3.7 | |
| Oggi h: 03:00 | Poco Nuvoloso | 14 | 14 | 100 | 1011 | 10 | N 3.7 | |
| Oggi h: 02:30 | Nuvoloso | 15 | 14 | 93 | 1011 | 10 | O 7.4 | |
| Oggi h: 02:00 | Pioggia | 16 | 15 | 93 | 1011 | 5 | O 16.7 | |
| Oggi h: 01:30 | Molto Nuvoloso | 16 | 15 | 93 | 1011 | 10 | SO 9.3 | |
| Oggi h: 01:00 | Pioggia | 16 | 15 | 93 | 1011 | 10 | S/SO 7.4 | |
| Oggi h: 00:30 | Poco Nuvoloso | 15 | 15 | 100 | 1011 | 10 | S 7.4 | |
| Oggi h: 00:00 | Sereno | 15 | 15 | 100 | 1011 | 10 | S/SE 7.4 | |
| Ieri h: 23:30 | Sereno | 15 | 15 | 100 | 1010 | 10 | SE 9.3 | |
| Ieri h: 23:00 | Sereno | 15 | 14 | 93 | 1010 | 10 | SE 7.4 | |
| Ieri h: 22:30 | Sereno | 15 | 15 | 100 | 1010 | 10 | SE 9.3 | |
| Ieri h: 22:00 | Poco Nuvoloso | 14 | 14 | 100 | 1010 | 10 | SE 13 | |
| Ieri h: 21:30 | Nuvoloso | 14 | 13 | 93 | 1010 | 10 | SE 11.1 | |
| Ieri h: 21:00 | Temporale | 14 | 13 | 93 | 1010 | 10 | N 5.5 | |
| Ieri h: 20:30 | Temporale | 18 | 13 | 72 | 1010 | 10 | SE 9.3 | |
| Ieri h: 20:00 | Poco Nuvoloso | 18 | 13 | 72 | 1009 | 10 | SE 9.3 | |
| Ieri h: 19:30 | Sereno | 20 | 13 | 64 | 1009 | 10 | S/SE 13 | |
| Ieri h: 19:00 | Sereno | 22 | 14 | 60 | 1009 | 10 | S 9.3 | |
| Ieri h: 18:30 | Poco Nuvoloso | 23 | 15 | 60 | 1009 | 10 | S/SO 14.8 | |
| Ieri h: 18:00 | Pioggia | 24 | 15 | 57 | 1009 | 10 | S 18.5 | |
| Ieri h: 17:30 | Poco Nuvoloso | 24 | 14 | 53 | 1009 | 10 | S 18.5 | |
| Ieri h: 17:00 | Poco Nuvoloso | 24 | 14 | 53 | 1009 | 10 | S 13 | |
| Ieri h: 16:30 | Poco Nuvoloso | 24 | 14 | 53 | 1009 | 10 | S 13 | |
| Ieri h: 16:00 | Nuvoloso | 25 | 14 | 50 | 1009 | 10 | S 14.8 | |
| Ieri h: 15:30 | Poco Nuvoloso | 25 | 13 | 47 | 1010 | 10 | S/SO 16.7 | |
| Ieri h: 15:00 | Poco Nuvoloso | 25 | 13 | 47 | 1010 | 10 | SO 20.3 | |
| Ieri h: 14:30 | Poco Nuvoloso | 24 | 14 | 53 | 1010 | 10 | S/SO 20.3 | |
| Ieri h: 14:00 | Poco Nuvoloso | 24 | 14 | 53 | 1010 | 10 | S 20.3 | |
| Ieri h: 13:30 | Sereno | 22 | 15 | 64 | 1010 | 10 | S/SE 16.7 | |
| Ieri h: 13:00 | Sereno | 21 | 15 | 68 | 1010 | 10 | S 13 | |



